sensor_id;sensor_type;location;lat;lon;timestamp;temperature;humidity
16392;DHT22;8305;-33.882;151.134;2023-01-31T00:00:52;24.00;99.90
16392;DHT22;8305;-33.882;151.134;2023-01-31T00:03:23;23.90;99.90
16392;DHT22;8305;-33.882;151.134;2023-01-31T00:05:56;23.90;99.90
16392;DHT22;8305;-33.882;151.134;2023-01-31T00:08:27;23.80;99.90
16392;DHT22;8305;-33.882;151.134;2023-01-31T00:10:59;23.90;99.90
16392;DHT22;8305;-33.882;151.134;2023-01-31T00:13:30;23.90;99.90
16392;DHT22;8305;-33.882;151.134;2023-01-31T00:16:01;24.00;99.90
16392;DHT22;8305;-33.882;151.134;2023-01-31T00:18:33;24.00;99.90
16392;DHT22;8305;-33.882;151.134;2023-01-31T00:21:11;24.00;99.90
16392;DHT22;8305;-33.882;151.134;2023-01-31T00:23:42;24.00;99.90
16392;DHT22;8305;-33.882;151.134;2023-01-31T00:26:15;24.00;99.90
16392;DHT22;8305;-33.882;151.134;2023-01-31T00:28:47;24.00;99.90
16392;DHT22;8305;-33.882;151.134;2023-01-31T00:31:19;23.90;99.90
16392;DHT22;8305;-33.882;151.134;2023-01-31T00:33:51;23.80;99.90
16392;DHT22;8305;-33.882;151.134;2023-01-31T00:36:26;23.80;99.90
16392;DHT22;8305;-33.882;151.134;2023-01-31T00:38:59;23.60;99.90
16392;DHT22;8305;-33.882;151.134;2023-01-31T00:41:31;23.60;99.90
16392;DHT22;8305;-33.882;151.134;2023-01-31T00:44:02;23.60;99.90
16392;DHT22;8305;-33.882;151.134;2023-01-31T00:46:34;23.50;99.90
16392;DHT22;8305;-33.882;151.134;2023-01-31T00:49:05;23.50;99.90
16392;DHT22;8305;-33.882;151.134;2023-01-31T00:51:38;23.50;99.90
16392;DHT22;8305;-33.882;151.134;2023-01-31T00:54:09;23.50;99.90
16392;DHT22;8305;-33.882;151.134;2023-01-31T00:56:40;23.50;99.90
16392;DHT22;8305;-33.882;151.134;2023-01-31T00:59:11;23.50;99.90
16392;DHT22;8305;-33.882;151.134;2023-01-31T01:01:42;23.60;99.90
16392;DHT22;8305;-33.882;151.134;2023-01-31T01:04:13;23.60;99.90
16392;DHT22;8305;-33.882;151.134;2023-01-31T01:06:46;23.60;99.90
16392;DHT22;8305;-33.882;151.134;2023-01-31T01:09:17;23.50;99.90
16392;DHT22;8305;-33.882;151.134;2023-01-31T01:11:49;23.50;99.90
16392;DHT22;8305;-33.882;151.134;2023-01-31T01:14:21;23.50;99.90
16392;DHT22;8305;-33.882;151.134;2023-01-31T01:16:52;23.50;99.90
16392;DHT22;8305;-33.882;151.134;2023-01-31T01:19:25;23.50;99.90
16392;DHT22;8305;-33.882;151.134;2023-01-31T01:21:57;23.40;99.90
16392;DHT22;8305;-33.882;151.134;2023-01-31T01:24:29;23.40;99.90
16392;DHT22;8305;-33.882;151.134;2023-01-31T01:26:59;23.40;99.90
16392;DHT22;8305;-33.882;151.134;2023-01-31T01:29:32;23.40;99.90
16392;DHT22;8305;-33.882;151.134;2023-01-31T01:32:03;23.40;99.90
16392;DHT22;8305;-33.882;151.134;2023-01-31T01:34:35;23.30;99.90
16392;DHT22;8305;-33.882;151.134;2023-01-31T01:37:08;23.30;99.90
16392;DHT22;8305;-33.882;151.134;2023-01-31T01:39:46;23.30;99.90
16392;DHT22;8305;-33.882;151.134;2023-01-31T01:42:19;23.30;99.90
16392;DHT22;8305;-33.882;151.134;2023-01-31T01:44:54;23.30;99.90
16392;DHT22;8305;-33.882;151.134;2023-01-31T01:47:35;23.40;99.90
16392;DHT22;8305;-33.882;151.134;2023-01-31T01:50:11;23.50;99.90
16392;DHT22;8305;-33.882;151.134;2023-01-31T01:52:47;23.50;99.90
16392;DHT22;8305;-33.882;151.134;2023-01-31T01:55:22;23.60;99.90
16392;DHT22;8305;-33.882;151.134;2023-01-31T01:57:57;23.70;99.90
16392;DHT22;8305;-33.882;151.134;2023-01-31T02:00:31;23.80;99.90
16392;DHT22;8305;-33.882;151.134;2023-01-31T02:03:05;23.90;99.90
16392;DHT22;8305;-33.882;151.134;2023-01-31T02:05:41;24.00;99.90
16392;DHT22;8305;-33.882;151.134;2023-01-31T02:08:17;24.10;99.90
16392;DHT22;8305;-33.882;151.134;2023-01-31T02:10:51;24.30;99.90
16392;DHT22;8305;-33.882;151.134;2023-01-31T02:13:24;24.40;99.90
16392;DHT22;8305;-33.882;151.134;2023-01-31T02:15:56;24.60;99.90
16392;DHT22;8305;-33.882;151.134;2023-01-31T02:18:27;24.90;99.90
16392;DHT22;8305;-33.882;151.134;2023-01-31T02:21:24;25.10;99.90
16392;DHT22;8305;-33.882;151.134;2023-01-31T02:24:21;25.20;99.90
16392;DHT22;8305;-33.882;151.134;2023-01-31T02:27:23;25.20;99.90
16392;DHT22;8305;-33.882;151.134;2023-01-31T02:33:11;24.90;99.90
16392;DHT22;8305;-33.882;151.134;2023-01-31T02:35:53;24.80;99.90
16392;DHT22;8305;-33.882;151.134;2023-01-31T02:38:36;24.80;99.90
16392;DHT22;8305;-33.882;151.134;2023-01-31T02:41:16;24.80;99.90
16392;DHT22;8305;-33.882;151.134;2023-01-31T02:43:53;24.90;99.90
16392;DHT22;8305;-33.882;151.134;2023-01-31T02:46:49;25.00;99.90
16392;DHT22;8305;-33.882;151.134;2023-01-31T02:49:28;25.10;99.90
16392;DHT22;8305;-33.882;151.134;2023-01-31T02:52:11;25.20;99.90
16392;DHT22;8305;-33.882;151.134;2023-01-31T02:54:55;25.30;99.90
16392;DHT22;8305;-33.882;151.134;2023-01-31T02:57:44;25.50;99.90
16392;DHT22;8305;-33.882;151.134;2023-01-31T03:00:17;25.70;99.90
16392;DHT22;8305;-33.882;151.134;2023-01-31T03:02:48;25.90;99.90
16392;DHT22;8305;-33.882;151.134;2023-01-31T03:05:21;26.00;99.90
16392;DHT22;8305;-33.882;151.134;2023-01-31T03:07:54;26.10;99.90
16392;DHT22;8305;-33.882;151.134;2023-01-31T03:10:36;26.10;99.90
16392;DHT22;8305;-33.882;151.134;2023-01-31T03:16:11;26.30;99.90
16392;DHT22;8305;-33.882;151.134;2023-01-31T03:19:07;26.30;99.90
16392;DHT22;8305;-33.882;151.134;2023-01-31T03:21:45;26.40;99.90
16392;DHT22;8305;-33.882;151.134;2023-01-31T03:24:18;26.50;99.90
16392;DHT22;8305;-33.882;151.134;2023-01-31T03:26:53;26.50;99.90
16392;DHT22;8305;-33.882;151.134;2023-01-31T03:29:26;26.60;99.90
16392;DHT22;8305;-33.882;151.134;2023-01-31T03:32:01;26.70;99.90
16392;DHT22;8305;-33.882;151.134;2023-01-31T03:34:33;26.80;99.90
16392;DHT22;8305;-33.882;151.134;2023-01-31T03:37:10;26.80;99.90
16392;DHT22;8305;-33.882;151.134;2023-01-31T03:39:45;26.90;99.90
16392;DHT22;8305;-33.882;151.134;2023-01-31T03:42:24;26.80;99.90
16392;DHT22;8305;-33.882;151.134;2023-01-31T03:45:01;26.70;99.90
16392;DHT22;8305;-33.882;151.134;2023-01-31T03:47:36;26.70;99.90
16392;DHT22;8305;-33.882;151.134;2023-01-31T03:50:11;26.70;99.90
16392;DHT22;8305;-33.882;151.134;2023-01-31T03:52:48;26.80;99.90
16392;DHT22;8305;-33.882;151.134;2023-01-31T03:55:23;26.90;99.90
16392;DHT22;8305;-33.882;151.134;2023-01-31T03:57:59;26.90;99.90
16392;DHT22;8305;-33.882;151.134;2023-01-31T04:00:33;26.80;99.90
16392;DHT22;8305;-33.882;151.134;2023-01-31T04:03:09;26.70;99.90
16392;DHT22;8305;-33.882;151.134;2023-01-31T04:05:40;26.60;99.90
16392;DHT22;8305;-33.882;151.134;2023-01-31T04:08:14;26.50;99.90
16392;DHT22;8305;-33.882;151.134;2023-01-31T04:10:45;26.40;99.90
16392;DHT22;8305;-33.882;151.134;2023-01-31T04:13:16;26.20;99.90
16392;DHT22;8305;-33.882;151.134;2023-01-31T04:15:48;26.10;99.90
16392;DHT22;8305;-33.882;151.134;2023-01-31T04:18:20;26.00;99.90
16392;DHT22;8305;-33.882;151.134;2023-01-31T04:20:50;26.10;99.90
16392;DHT22;8305;-33.882;151.134;2023-01-31T04:23:24;26.10;99.90
16392;DHT22;8305;-33.882;151.134;2023-01-31T04:25:55;26.10;99.90
16392;DHT22;8305;-33.882;151.134;2023-01-31T04:28:25;26.10;99.90
16392;DHT22;8305;-33.882;151.134;2023-01-31T04:30:56;26.10;99.90
16392;DHT22;8305;-33.882;151.134;2023-01-31T04:33:27;26.10;99.90
16392;DHT22;8305;-33.882;151.134;2023-01-31T04:35:58;26.20;99.90
16392;DHT22;8305;-33.882;151.134;2023-01-31T04:38:31;26.30;99.90
16392;DHT22;8305;-33.882;151.134;2023-01-31T04:41:02;26.50;99.90
16392;DHT22;8305;-33.882;151.134;2023-01-31T04:43:33;26.60;99.90
16392;DHT22;8305;-33.882;151.134;2023-01-31T04:46:04;26.70;99.90
16392;DHT22;8305;-33.882;151.134;2023-01-31T04:48:39;26.90;99.90
16392;DHT22;8305;-33.882;151.134;2023-01-31T04:51:10;27.10;99.90
16392;DHT22;8305;-33.882;151.134;2023-01-31T04:53:43;27.10;99.90
16392;DHT22;8305;-33.882;151.134;2023-01-31T04:56:14;27.10;99.90
16392;DHT22;8305;-33.882;151.134;2023-01-31T04:58:45;26.90;99.90
16392;DHT22;8305;-33.882;151.134;2023-01-31T05:01:17;26.80;99.90
16392;DHT22;8305;-33.882;151.134;2023-01-31T05:03:47;26.60;99.90
16392;DHT22;8305;-33.882;151.134;2023-01-31T05:06:18;26.50;99.90
16392;DHT22;8305;-33.882;151.134;2023-01-31T05:08:51;26.40;99.90
16392;DHT22;8305;-33.882;151.134;2023-01-31T05:11:23;26.20;99.90
16392;DHT22;8305;-33.882;151.134;2023-01-31T05:13:54;26.10;99.90
16392;DHT22;8305;-33.882;151.134;2023-01-31T05:16:25;26.00;99.90
16392;DHT22;8305;-33.882;151.134;2023-01-31T05:18:56;26.00;99.90
16392;DHT22;8305;-33.882;151.134;2023-01-31T05:21:27;26.00;99.90
16392;DHT22;8305;-33.882;151.134;2023-01-31T05:24:20;26.00;99.90
16392;DHT22;8305;-33.882;151.134;2023-01-31T05:26:50;26.10;99.90
16392;DHT22;8305;-33.882;151.134;2023-01-31T05:29:25;26.10;99.90
16392;DHT22;8305;-33.882;151.134;2023-01-31T05:31:58;26.00;99.90
16392;DHT22;8305;-33.882;151.134;2023-01-31T05:34:29;25.90;99.90
16392;DHT22;8305;-33.882;151.134;2023-01-31T05:37:00;25.90;99.90
16392;DHT22;8305;-33.882;151.134;2023-01-31T05:39:33;25.80;99.90
16392;DHT22;8305;-33.882;151.134;2023-01-31T05:42:04;25.70;99.90
16392;DHT22;8305;-33.882;151.134;2023-01-31T05:44:35;25.70;99.90
16392;DHT22;8305;-33.882;151.134;2023-01-31T05:47:06;25.60;99.90
16392;DHT22;8305;-33.882;151.134;2023-01-31T05:49:37;25.60;99.90
16392;DHT22;8305;-33.882;151.134;2023-01-31T05:52:08;25.60;99.90
16392;DHT22;8305;-33.882;151.134;2023-01-31T05:54:41;25.80;99.90
16392;DHT22;8305;-33.882;151.134;2023-01-31T05:57:12;25.90;99.90
16392;DHT22;8305;-33.882;151.134;2023-01-31T05:59:43;26.00;99.90
16392;DHT22;8305;-33.882;151.134;2023-01-31T06:02:14;26.10;99.90
16392;DHT22;8305;-33.882;151.134;2023-01-31T06:04:45;26.20;99.90
16392;DHT22;8305;-33.882;151.134;2023-01-31T06:07:16;26.20;99.90
16392;DHT22;8305;-33.882;151.134;2023-01-31T06:09:49;26.10;99.90
16392;DHT22;8305;-33.882;151.134;2023-01-31T06:12:20;26.10;99.90
16392;DHT22;8305;-33.882;151.134;2023-01-31T06:14:51;26.00;99.90
16392;DHT22;8305;-33.882;151.134;2023-01-31T06:17:22;26.00;99.90
16392;DHT22;8305;-33.882;151.134;2023-01-31T06:19:53;25.90;99.90
16392;DHT22;8305;-33.882;151.134;2023-01-31T06:22:24;26.00;99.90
16392;DHT22;8305;-33.882;151.134;2023-01-31T06:24:57;26.10;99.90
16392;DHT22;8305;-33.882;151.134;2023-01-31T06:27:30;26.00;99.90
16392;DHT22;8305;-33.882;151.134;2023-01-31T06:30:01;26.00;99.90
16392;DHT22;8305;-33.882;151.134;2023-01-31T06:32:32;25.90;99.90
16392;DHT22;8305;-33.882;151.134;2023-01-31T06:35:04;25.90;99.90
16392;DHT22;8305;-33.882;151.134;2023-01-31T06:37:35;25.90;99.90
16392;DHT22;8305;-33.882;151.134;2023-01-31T06:40:08;25.90;99.90
16392;DHT22;8305;-33.882;151.134;2023-01-31T06:42:40;25.90;99.90
16392;DHT22;8305;-33.882;151.134;2023-01-31T06:45:11;25.80;99.90
16392;DHT22;8305;-33.882;151.134;2023-01-31T06:47:44;25.80;99.90
16392;DHT22;8305;-33.882;151.134;2023-01-31T06:50:16;25.80;99.90
16392;DHT22;8305;-33.882;151.134;2023-01-31T06:52:47;25.80;99.90
16392;DHT22;8305;-33.882;151.134;2023-01-31T06:55:20;25.70;99.90
16392;DHT22;8305;-33.882;151.134;2023-01-31T06:57:51;25.60;99.90
16392;DHT22;8305;-33.882;151.134;2023-01-31T07:00:22;25.60;99.90
16392;DHT22;8305;-33.882;151.134;2023-01-31T07:02:53;25.60;99.90
16392;DHT22;8305;-33.882;151.134;2023-01-31T07:05:24;25.70;99.90
16392;DHT22;8305;-33.882;151.134;2023-01-31T07:07:55;25.70;99.90
16392;DHT22;8305;-33.882;151.134;2023-01-31T07:10:28;25.70;99.90
16392;DHT22;8305;-33.882;151.134;2023-01-31T07:12:59;25.70;99.90
16392;DHT22;8305;-33.882;151.134;2023-01-31T07:15:33;25.70;99.90
16392;DHT22;8305;-33.882;151.134;2023-01-31T07:18:04;25.60;99.90
16392;DHT22;8305;-33.882;151.134;2023-01-31T07:20:35;25.50;99.90
16392;DHT22;8305;-33.882;151.134;2023-01-31T07:23:06;25.40;99.90
16392;DHT22;8305;-33.882;151.134;2023-01-31T07:25:40;25.40;99.90
16392;DHT22;8305;-33.882;151.134;2023-01-31T07:28:11;25.50;99.90
16392;DHT22;8305;-33.882;151.134;2023-01-31T07:30:42;25.30;99.90
16392;DHT22;8305;-33.882;151.134;2023-01-31T07:33:14;25.20;99.90
16392;DHT22;8305;-33.882;151.134;2023-01-31T07:35:45;25.20;99.90
16392;DHT22;8305;-33.882;151.134;2023-01-31T07:38:16;25.10;99.90
16392;DHT22;8305;-33.882;151.134;2023-01-31T07:40:49;25.10;99.90
16392;DHT22;8305;-33.882;151.134;2023-01-31T07:43:20;25.00;99.90
16392;DHT22;8305;-33.882;151.134;2023-01-31T07:45:51;25.00;99.90
16392;DHT22;8305;-33.882;151.134;2023-01-31T07:48:22;25.00;99.90
16392;DHT22;8305;-33.882;151.134;2023-01-31T07:50:57;25.00;99.90
16392;DHT22;8305;-33.882;151.134;2023-01-31T07:53:29;24.90;99.90
16392;DHT22;8305;-33.882;151.134;2023-01-31T07:56:11;24.90;99.90
16392;DHT22;8305;-33.882;151.134;2023-01-31T07:58:43;24.80;99.90
16392;DHT22;8305;-33.882;151.134;2023-01-31T08:01:15;24.80;99.90
16392;DHT22;8305;-33.882;151.134;2023-01-31T08:04:01;24.70;99.90
16392;DHT22;8305;-33.882;151.134;2023-01-31T08:06:32;24.60;99.90
16392;DHT22;8305;-33.882;151.134;2023-01-31T08:09:03;24.70;99.90
16392;DHT22;8305;-33.882;151.134;2023-01-31T08:11:36;24.60;99.90
16392;DHT22;8305;-33.882;151.134;2023-01-31T08:14:07;24.50;99.90
16392;DHT22;8305;-33.882;151.134;2023-01-31T08:16:38;24.40;99.90
16392;DHT22;8305;-33.882;151.134;2023-01-31T08:19:09;24.30;99.90
16392;DHT22;8305;-33.882;151.134;2023-01-31T08:21:40;24.20;99.90
16392;DHT22;8305;-33.882;151.134;2023-01-31T08:24:11;24.30;99.90
16392;DHT22;8305;-33.882;151.134;2023-01-31T08:26:44;24.20;99.90
16392;DHT22;8305;-33.882;151.134;2023-01-31T08:29:15;24.20;99.90
16392;DHT22;8305;-33.882;151.134;2023-01-31T08:31:46;24.10;99.90
16392;DHT22;8305;-33.882;151.134;2023-01-31T08:34:17;24.00;99.90
16392;DHT22;8305;-33.882;151.134;2023-01-31T08:36:50;24.00;99.90
16392;DHT22;8305;-33.882;151.134;2023-01-31T08:39:21;23.90;99.90
16392;DHT22;8305;-33.882;151.134;2023-01-31T08:41:54;23.80;99.90
16392;DHT22;8305;-33.882;151.134;2023-01-31T08:44:24;23.80;99.90
16392;DHT22;8305;-33.882;151.134;2023-01-31T08:46:55;23.80;99.90
16392;DHT22;8305;-33.882;151.134;2023-01-31T08:49:28;23.70;99.90
16392;DHT22;8305;-33.882;151.134;2023-01-31T08:52:00;23.70;99.90
16392;DHT22;8305;-33.882;151.134;2023-01-31T08:54:31;23.70;99.90
16392;DHT22;8305;-33.882;151.134;2023-01-31T08:57:04;23.60;99.90
16392;DHT22;8305;-33.882;151.134;2023-01-31T08:59:35;23.50;99.90
16392;DHT22;8305;-33.882;151.134;2023-01-31T09:02:08;23.40;99.90
16392;DHT22;8305;-33.882;151.134;2023-01-31T09:04:40;23.40;99.90
16392;DHT22;8305;-33.882;151.134;2023-01-31T09:07:11;23.30;99.90
16392;DHT22;8305;-33.882;151.134;2023-01-31T09:09:42;23.30;99.90
16392;DHT22;8305;-33.882;151.134;2023-01-31T09:12:15;23.30;99.90
16392;DHT22;8305;-33.882;151.134;2023-01-31T09:14:46;23.20;99.90
16392;DHT22;8305;-33.882;151.134;2023-01-31T09:17:17;23.20;99.90
16392;DHT22;8305;-33.882;151.134;2023-01-31T09:19:48;23.20;99.90
16392;DHT22;8305;-33.882;151.134;2023-01-31T09:22:19;23.10;99.90
16392;DHT22;8305;-33.882;151.134;2023-01-31T09:24:50;23.10;99.90
16392;DHT22;8305;-33.882;151.134;2023-01-31T09:27:22;23.10;99.90
16392;DHT22;8305;-33.882;151.134;2023-01-31T09:29:53;23.10;99.90
16392;DHT22;8305;-33.882;151.134;2023-01-31T09:32:24;23.10;99.90
16392;DHT22;8305;-33.882;151.134;2023-01-31T09:34:56;23.00;99.90
16392;DHT22;8305;-33.882;151.134;2023-01-31T09:37:30;23.00;99.90
16392;DHT22;8305;-33.882;151.134;2023-01-31T09:40:01;22.90;99.90
16392;DHT22;8305;-33.882;151.134;2023-01-31T09:42:35;22.90;99.90
16392;DHT22;8305;-33.882;151.134;2023-01-31T09:45:12;22.90;99.90
16392;DHT22;8305;-33.882;151.134;2023-01-31T09:47:46;22.80;99.90
16392;DHT22;8305;-33.882;151.134;2023-01-31T09:50:20;22.80;99.90
16392;DHT22;8305;-33.882;151.134;2023-01-31T09:52:52;22.80;99.90
16392;DHT22;8305;-33.882;151.134;2023-01-31T09:55:26;22.80;99.90
16392;DHT22;8305;-33.882;151.134;2023-01-31T09:58:05;22.80;99.90
16392;DHT22;8305;-33.882;151.134;2023-01-31T10:00:42;22.90;99.90
16392;DHT22;8305;-33.882;151.134;2023-01-31T10:03:40;22.80;99.90
16392;DHT22;8305;-33.882;151.134;2023-01-31T10:06:20;22.80;99.90
16392;DHT22;8305;-33.882;151.134;2023-01-31T10:08:55;22.80;99.90
16392;DHT22;8305;-33.882;151.134;2023-01-31T10:11:33;22.80;99.90
16392;DHT22;8305;-33.882;151.134;2023-01-31T10:14:19;22.80;99.90
16392;DHT22;8305;-33.882;151.134;2023-01-31T10:17:06;22.80;99.90
16392;DHT22;8305;-33.882;151.134;2023-01-31T10:19:45;22.90;99.90
16392;DHT22;8305;-33.882;151.134;2023-01-31T10:22:19;22.90;99.90
16392;DHT22;8305;-33.882;151.134;2023-01-31T10:24:54;22.90;99.90
16392;DHT22;8305;-33.882;151.134;2023-01-31T10:27:38;22.90;99.90
16392;DHT22;8305;-33.882;151.134;2023-01-31T10:30:16;22.90;99.90
16392;DHT22;8305;-33.882;151.134;2023-01-31T10:32:50;22.90;99.90
16392;DHT22;8305;-33.882;151.134;2023-01-31T10:35:25;22.90;99.90
16392;DHT22;8305;-33.882;151.134;2023-01-31T10:38:03;22.90;99.90
16392;DHT22;8305;-33.882;151.134;2023-01-31T10:40:38;22.90;99.90
16392;DHT22;8305;-33.882;151.134;2023-01-31T10:43:15;22.90;99.90
16392;DHT22;8305;-33.882;151.134;2023-01-31T10:45:48;22.90;99.90
16392;DHT22;8305;-33.882;151.134;2023-01-31T10:48:21;22.90;99.90
16392;DHT22;8305;-33.882;151.134;2023-01-31T10:51:01;22.90;99.90
16392;DHT22;8305;-33.882;151.134;2023-01-31T10:53:48;22.90;99.90
16392;DHT22;8305;-33.882;151.134;2023-01-31T10:56:27;22.90;99.90
16392;DHT22;8305;-33.882;151.134;2023-01-31T10:59:03;22.90;99.90
16392;DHT22;8305;-33.882;151.134;2023-01-31T11:01:37;22.90;99.90
16392;DHT22;8305;-33.882;151.134;2023-01-31T11:04:24;22.90;99.90
16392;DHT22;8305;-33.882;151.134;2023-01-31T11:06:59;22.90;99.90
16392;DHT22;8305;-33.882;151.134;2023-01-31T11:09:33;22.90;99.90
16392;DHT22;8305;-33.882;151.134;2023-01-31T11:12:06;22.90;99.90
16392;DHT22;8305;-33.882;151.134;2023-01-31T11:14:37;22.90;99.90
16392;DHT22;8305;-33.882;151.134;2023-01-31T11:17:15;22.80;99.90
16392;DHT22;8305;-33.882;151.134;2023-01-31T11:19:48;22.80;99.90
16392;DHT22;8305;-33.882;151.134;2023-01-31T11:22:24;22.80;99.90
16392;DHT22;8305;-33.882;151.134;2023-01-31T11:24:57;22.70;99.90
16392;DHT22;8305;-33.882;151.134;2023-01-31T11:27:36;22.70;99.90
16392;DHT22;8305;-33.882;151.134;2023-01-31T11:30:21;22.70;99.90
16392;DHT22;8305;-33.882;151.134;2023-01-31T11:32:55;22.70;99.90
16392;DHT22;8305;-33.882;151.134;2023-01-31T11:35:28;22.70;99.90
16392;DHT22;8305;-33.882;151.134;2023-01-31T11:38:00;22.70;99.90
16392;DHT22;8305;-33.882;151.134;2023-01-31T11:40:33;22.70;99.90
16392;DHT22;8305;-33.882;151.134;2023-01-31T11:43:05;22.70;99.90
16392;DHT22;8305;-33.882;151.134;2023-01-31T11:45:37;22.70;99.90
16392;DHT22;8305;-33.882;151.134;2023-01-31T11:48:16;22.60;99.90
16392;DHT22;8305;-33.882;151.134;2023-01-31T11:50:52;22.70;99.90
16392;DHT22;8305;-33.882;151.134;2023-01-31T11:53:25;22.60;99.90
16392;DHT22;8305;-33.882;151.134;2023-01-31T11:56:07;22.60;99.90
16392;DHT22;8305;-33.882;151.134;2023-01-31T11:58:41;22.60;99.90
16392;DHT22;8305;-33.882;151.134;2023-01-31T12:01:15;22.60;99.90
16392;DHT22;8305;-33.882;151.134;2023-01-31T12:03:52;22.60;99.90
16392;DHT22;8305;-33.882;151.134;2023-01-31T12:06:29;22.60;99.90
16392;DHT22;8305;-33.882;151.134;2023-01-31T12:09:02;22.60;99.90
16392;DHT22;8305;-33.882;151.134;2023-01-31T12:11:34;22.60;99.90
16392;DHT22;8305;-33.882;151.134;2023-01-31T12:14:13;22.50;99.90
16392;DHT22;8305;-33.882;151.134;2023-01-31T12:16:46;22.50;99.90
16392;DHT22;8305;-33.882;151.134;2023-01-31T12:19:29;22.50;99.90
16392;DHT22;8305;-33.882;151.134;2023-01-31T12:22:08;22.50;99.90
16392;DHT22;8305;-33.882;151.134;2023-01-31T12:24:44;22.40;99.90
16392;DHT22;8305;-33.882;151.134;2023-01-31T12:27:36;22.40;99.90
16392;DHT22;8305;-33.882;151.134;2023-01-31T12:30:28;22.40;99.90
16392;DHT22;8305;-33.882;151.134;2023-01-31T12:33:14;22.40;99.90
16392;DHT22;8305;-33.882;151.134;2023-01-31T12:35:59;22.30;99.90
16392;DHT22;8305;-33.882;151.134;2023-01-31T12:41:34;22.30;99.90
16392;DHT22;8305;-33.882;151.134;2023-01-31T12:44:31;22.30;99.90
16392;DHT22;8305;-33.882;151.134;2023-01-31T12:50:16;22.10;99.90
16392;DHT22;8305;-33.882;151.134;2023-01-31T12:55:53;22.00;99.90
16392;DHT22;8305;-33.882;151.134;2023-01-31T12:58:41;22.00;99.90
16392;DHT22;8305;-33.882;151.134;2023-01-31T13:01:15;22.00;99.90
16392;DHT22;8305;-33.882;151.134;2023-01-31T13:03:58;21.90;99.90
16392;DHT22;8305;-33.882;151.134;2023-01-31T13:06:36;21.90;99.90
16392;DHT22;8305;-33.882;151.134;2023-01-31T13:09:15;21.90;99.90
16392;DHT22;8305;-33.882;151.134;2023-01-31T13:11:50;21.90;99.90
16392;DHT22;8305;-33.882;151.134;2023-01-31T13:14:24;21.90;99.90
16392;DHT22;8305;-33.882;151.134;2023-01-31T13:16:58;21.90;99.90
16392;DHT22;8305;-33.882;151.134;2023-01-31T13:19:33;21.80;99.90
16392;DHT22;8305;-33.882;151.134;2023-01-31T13:22:12;21.80;99.90
16392;DHT22;8305;-33.882;151.134;2023-01-31T13:24:48;21.80;99.90
16392;DHT22;8305;-33.882;151.134;2023-01-31T13:27:25;21.70;99.90
16392;DHT22;8305;-33.882;151.134;2023-01-31T13:29:59;21.70;99.90
16392;DHT22;8305;-33.882;151.134;2023-01-31T13:32:35;21.70;99.90
16392;DHT22;8305;-33.882;151.134;2023-01-31T13:35:17;21.70;99.90
16392;DHT22;8305;-33.882;151.134;2023-01-31T13:37:54;21.60;99.90
16392;DHT22;8305;-33.882;151.134;2023-01-31T13:40:30;21.60;99.90
16392;DHT22;8305;-33.882;151.134;2023-01-31T13:43:10;21.60;99.90
16392;DHT22;8305;-33.882;151.134;2023-01-31T13:45:43;21.60;99.90
16392;DHT22;8305;-33.882;151.134;2023-01-31T13:48:25;21.50;99.90
16392;DHT22;8305;-33.882;151.134;2023-01-31T13:51:00;21.50;99.90
16392;DHT22;8305;-33.882;151.134;2023-01-31T13:53:34;21.50;99.90
16392;DHT22;8305;-33.882;151.134;2023-01-31T13:56:10;21.50;99.90
16392;DHT22;8305;-33.882;151.134;2023-01-31T13:58:48;21.50;99.90
16392;DHT22;8305;-33.882;151.134;2023-01-31T14:01:21;21.40;99.90
16392;DHT22;8305;-33.882;151.134;2023-01-31T14:07:22;21.40;99.90
16392;DHT22;8305;-33.882;151.134;2023-01-31T14:10:26;21.30;99.90
16392;DHT22;8305;-33.882;151.134;2023-01-31T14:16:36;21.30;99.90
16392;DHT22;8305;-33.882;151.134;2023-01-31T14:19:33;21.20;99.90
16392;DHT22;8305;-33.882;151.134;2023-01-31T14:22:22;21.20;99.90
16392;DHT22;8305;-33.882;151.134;2023-01-31T14:24:58;21.20;99.90
16392;DHT22;8305;-33.882;151.134;2023-01-31T14:27:40;21.20;99.90
16392;DHT22;8305;-33.882;151.134;2023-01-31T14:30:34;21.20;99.90
16392;DHT22;8305;-33.882;151.134;2023-01-31T14:33:17;21.20;99.90
16392;DHT22;8305;-33.882;151.134;2023-01-31T14:36:28;21.10;99.90
16392;DHT22;8305;-33.882;151.134;2023-01-31T14:42:35;21.10;99.90
16392;DHT22;8305;-33.882;151.134;2023-01-31T14:45:35;21.10;99.90
16392;DHT22;8305;-33.882;151.134;2023-01-31T14:48:29;21.10;99.90
16392;DHT22;8305;-33.882;151.134;2023-01-31T14:51:12;21.10;99.90
16392;DHT22;8305;-33.882;151.134;2023-01-31T14:57:09;21.10;99.90
16392;DHT22;8305;-33.882;151.134;2023-01-31T14:59:45;21.10;99.90
16392;DHT22;8305;-33.882;151.134;2023-01-31T15:02:47;21.10;99.90
16392;DHT22;8305;-33.882;151.134;2023-01-31T15:05:36;21.00;99.90
16392;DHT22;8305;-33.882;151.134;2023-01-31T15:11:38;20.90;99.90
16392;DHT22;8305;-33.882;151.134;2023-01-31T15:14:32;20.90;99.90
16392;DHT22;8305;-33.882;151.134;2023-01-31T15:17:13;20.90;99.90
16392;DHT22;8305;-33.882;151.134;2023-01-31T15:19:48;20.80;99.90
16392;DHT22;8305;-33.882;151.134;2023-01-31T15:22:23;20.80;99.90
16392;DHT22;8305;-33.882;151.134;2023-01-31T15:25:05;20.80;99.90
16392;DHT22;8305;-33.882;151.134;2023-01-31T15:27:41;20.80;99.90
16392;DHT22;8305;-33.882;151.134;2023-01-31T15:30:18;20.80;99.90
16392;DHT22;8305;-33.882;151.134;2023-01-31T15:32:54;20.70;99.90
16392;DHT22;8305;-33.882;151.134;2023-01-31T15:35:29;20.70;99.90
16392;DHT22;8305;-33.882;151.134;2023-01-31T15:38:05;20.70;99.90
16392;DHT22;8305;-33.882;151.134;2023-01-31T15:40:39;20.70;99.90
16392;DHT22;8305;-33.882;151.134;2023-01-31T15:43:20;20.70;99.90
16392;DHT22;8305;-33.882;151.134;2023-01-31T15:45:51;20.70;99.90
16392;DHT22;8305;-33.882;151.134;2023-01-31T15:48:23;20.70;99.90
16392;DHT22;8305;-33.882;151.134;2023-01-31T15:50:55;20.70;99.90
16392;DHT22;8305;-33.882;151.134;2023-01-31T15:53:28;20.70;99.90
16392;DHT22;8305;-33.882;151.134;2023-01-31T15:56:00;20.70;99.90
16392;DHT22;8305;-33.882;151.134;2023-01-31T15:58:32;20.70;99.90
16392;DHT22;8305;-33.882;151.134;2023-01-31T16:01:04;20.70;99.90
16392;DHT22;8305;-33.882;151.134;2023-01-31T16:03:38;20.70;99.90
16392;DHT22;8305;-33.882;151.134;2023-01-31T16:06:21;20.70;99.90
16392;DHT22;8305;-33.882;151.134;2023-01-31T16:08:57;20.70;99.90
16392;DHT22;8305;-33.882;151.134;2023-01-31T16:11:29;20.70;99.90
16392;DHT22;8305;-33.882;151.134;2023-01-31T16:14:03;20.70;99.90
16392;DHT22;8305;-33.882;151.134;2023-01-31T16:16:35;20.80;99.90
16392;DHT22;8305;-33.882;151.134;2023-01-31T16:19:06;20.80;99.90
16392;DHT22;8305;-33.882;151.134;2023-01-31T16:21:39;20.80;99.90
16392;DHT22;8305;-33.882;151.134;2023-01-31T16:24:17;20.80;99.90